Time;durP1;ratioP1;P1;durP2;ratioP2;P2;SDS_P1;SDS_P2;PMS_P1;PMS_P2;Temp;Humidity;BMP_temperature;BMP_pressure;BME280_temperature;BME280_humidity;BME280_pressure;Samples;Min_cycle;Max_cycle;Signal;HPM_P1;HPM_P2
2023/10/27 00:02:14;;;;;;;;;;;12.40;99.90;;;;;;7326302;19;110180;-66
2023/10/27 00:04:41;;;;;;;;;;;12.40;99.90;;;;;;7336878;19;109979;-66
2023/10/27 00:07:08;;;;;;;;;;;12.40;99.90;;;;;;7329062;19;110532;-65
2023/10/27 00:09:37;;;;;;;;;;;12.40;99.90;;;;;;7329273;19;109201;-66
2023/10/27 00:12:05;;;;;;;;;;;12.40;99.90;;;;;;7330808;19;108803;-65
2023/10/27 00:14:33;;;;;;;;;;;12.40;99.90;;;;;;7330900;19;109718;-65
2023/10/27 00:17:00;;;;;;;;;;;12.50;99.90;;;;;;7329721;19;109489;-66
2023/10/27 00:19:27;;;;;;;;;;;12.50;99.90;;;;;;7330061;19;109020;-65
2023/10/27 00:21:54;;;;;;;;;;;12.50;99.90;;;;;;7337750;19;109123;-66
2023/10/27 00:24:22;;;;;;;;;;;12.40;99.90;;;;;;7340018;19;110607;-65
2023/10/27 00:26:49;;;;;;;;;;;12.40;99.90;;;;;;7337876;19;108760;-66
2023/10/27 00:29:16;;;;;;;;;;;12.50;99.90;;;;;;7336607;19;109087;-64
2023/10/27 00:31:43;;;;;;;;;;;12.50;99.90;;;;;;7340303;19;108467;-65
2023/10/27 00:34:10;;;;;;;;;;;12.50;99.90;;;;;;7331426;19;109891;-66
2023/10/27 00:36:38;;;;;;;;;;;12.40;99.90;;;;;;7339004;19;109565;-66
2023/10/27 00:39:05;;;;;;;;;;;12.50;99.90;;;;;;7335493;19;111033;-66
2023/10/27 00:41:32;;;;;;;;;;;12.50;99.90;;;;;;7340188;19;108619;-65
2023/10/27 00:44:00;;;;;;;;;;;12.40;99.90;;;;;;7335535;19;112300;-66
2023/10/27 00:46:27;;;;;;;;;;;12.40;99.90;;;;;;7339621;19;109416;-66
2023/10/27 00:48:55;;;;;;;;;;;12.40;99.90;;;;;;7335864;19;109383;-66
2023/10/27 00:51:22;;;;;;;;;;;12.40;99.90;;;;;;7338061;19;109631;-66
2023/10/27 00:53:51;;;;;;;;;;;12.40;99.90;;;;;;7334446;19;110979;-66
2023/10/27 00:56:18;;;;;;;;;;;12.40;99.90;;;;;;7339303;19;109437;-66
2023/10/27 00:58:46;;;;;;;;;;;12.40;99.90;;;;;;7336745;19;109215;-66
2023/10/27 01:01:15;;;;;;;;;;;12.40;99.90;;;;;;7331655;19;109542;-66
2023/10/27 01:03:42;;;;;;;;;;;12.30;99.90;;;;;;7338048;19;110478;-66
2023/10/27 01:06:09;;;;;;;;;;;12.40;99.90;;;;;;7331644;19;110629;-66
2023/10/27 01:08:37;;;;;;;;;;;12.40;99.90;;;;;;7336083;19;109984;-66
2023/10/27 01:11:04;;;;;;;;;;;12.40;99.90;;;;;;7332203;19;109983;-66
2023/10/27 01:13:31;;;;;;;;;;;12.40;99.90;;;;;;7332397;19;109398;-66
2023/10/27 01:15:59;;;;;;;;;;;12.40;99.90;;;;;;7337705;19;110097;-66
2023/10/27 01:18:26;;;;;;;;;;;12.40;99.90;;;;;;7336455;19;109373;-67
2023/10/27 01:20:53;;;;;;;;;;;12.40;99.90;;;;;;7340796;19;109201;-66
2023/10/27 01:23:20;;;;;;;;;;;12.40;99.90;;;;;;7336301;19;110328;-66
2023/10/27 01:25:47;;;;;;;;;;;12.40;99.90;;;;;;7334892;19;110120;-66
2023/10/27 01:28:15;;;;;;;;;;;12.40;99.90;;;;;;7336469;19;110143;-66
2023/10/27 01:30:42;;;;;;;;;;;12.40;99.90;;;;;;7339427;19;110391;-66
2023/10/27 01:33:09;;;;;;;;;;;12.40;99.90;;;;;;7338412;19;109337;-66
2023/10/27 01:35:36;;;;;;;;;;;12.40;99.90;;;;;;7330332;19;109631;-66
2023/10/27 01:38:03;;;;;;;;;;;12.40;99.90;;;;;;7334015;19;109396;-66
2023/10/27 01:40:30;;;;;;;;;;;12.40;99.90;;;;;;7336231;19;110060;-66
2023/10/27 01:42:57;;;;;;;;;;;12.40;99.90;;;;;;7332003;19;110935;-66
2023/10/27 01:45:25;;;;;;;;;;;12.50;99.90;;;;;;7334492;19;109011;-66
2023/10/27 01:47:52;;;;;;;;;;;12.50;99.90;;;;;;7332630;19;108881;-66
2023/10/27 01:50:19;;;;;;;;;;;12.50;99.90;;;;;;7332875;19;109705;-66
2023/10/27 01:52:46;;;;;;;;;;;12.40;99.90;;;;;;7339885;19;113749;-66
2023/10/27 01:55:13;;;;;;;;;;;12.40;99.90;;;;;;7333947;19;109550;-66
2023/10/27 01:57:41;;;;;;;;;;;12.40;99.90;;;;;;7338492;19;108451;-66
2023/10/27 02:00:09;;;;;;;;;;;12.40;99.90;;;;;;7332883;19;109181;-66
2023/10/27 02:02:36;;;;;;;;;;;12.40;99.90;;;;;;7335096;19;109681;-66
2023/10/27 02:05:04;;;;;;;;;;;12.50;99.90;;;;;;7329895;19;109735;-66
2023/10/27 02:07:31;;;;;;;;;;;12.50;99.90;;;;;;7333743;19;109367;-66
2023/10/27 02:09:59;;;;;;;;;;;12.50;99.90;;;;;;7335062;19;109596;-66
2023/10/27 02:12:26;;;;;;;;;;;12.50;99.90;;;;;;7336756;19;109202;-66
2023/10/27 02:14:54;;;;;;;;;;;12.50;99.90;;;;;;7339319;19;109127;-66
2023/10/27 02:17:21;;;;;;;;;;;12.50;99.90;;;;;;7333518;19;108784;-66
2023/10/27 02:19:49;;;;;;;;;;;12.50;99.90;;;;;;7336110;19;108806;-66
2023/10/27 02:22:19;;;;;;;;;;;12.50;99.90;;;;;;7333370;19;109442;-65
2023/10/27 02:24:46;;;;;;;;;;;12.50;99.90;;;;;;7336459;19;109199;-66
2023/10/27 02:27:14;;;;;;;;;;;12.50;99.90;;;;;;7330291;19;111132;-66
2023/10/27 02:29:41;;;;;;;;;;;12.50;99.90;;;;;;7336099;19;109141;-66
2023/10/27 02:32:08;;;;;;;;;;;12.50;99.90;;;;;;7334412;19;108840;-66
2023/10/27 02:34:35;;;;;;;;;;;12.50;99.90;;;;;;7340060;19;108355;-66
2023/10/27 02:37:02;;;;;;;;;;;12.50;99.90;;;;;;7331139;19;110134;-66
2023/10/27 02:39:30;;;;;;;;;;;12.50;99.90;;;;;;7331473;19;110790;-66
2023/10/27 02:41:57;;;;;;;;;;;12.60;99.90;;;;;;7332962;19;109826;-66
2023/10/27 02:44:24;;;;;;;;;;;12.60;99.90;;;;;;7334127;19;108865;-66
2023/10/27 02:46:51;;;;;;;;;;;12.60;99.90;;;;;;7332108;19;108677;-66
2023/10/27 02:49:18;;;;;;;;;;;12.60;99.90;;;;;;7329806;19;110933;-66
2023/10/27 02:51:45;;;;;;;;;;;12.60;99.90;;;;;;7333378;19;110332;-66
2023/10/27 02:54:12;;;;;;;;;;;12.50;99.90;;;;;;7333987;19;109134;-66
2023/10/27 02:56:39;;;;;;;;;;;12.60;99.90;;;;;;7335716;19;109425;-66
2023/10/27 02:59:09;;;;;;;;;;;12.60;99.90;;;;;;7334697;19;108582;-66
2023/10/27 03:01:37;;;;;;;;;;;12.60;99.90;;;;;;7328490;19;111158;-65
2023/10/27 03:04:04;;;;;;;;;;;12.60;99.90;;;;;;7331204;19;109563;-66
2023/10/27 03:06:32;;;;;;;;;;;12.60;99.90;;;;;;7332382;19;112033;-66
2023/10/27 03:08:59;;;;;;;;;;;12.60;99.90;;;;;;7335098;19;109706;-66
2023/10/27 03:11:26;;;;;;;;;;;12.60;99.90;;;;;;7332016;19;110784;-66
2023/10/27 03:13:53;;;;;;;;;;;12.50;99.90;;;;;;7332537;19;110328;-66
2023/10/27 03:16:21;;;;;;;;;;;12.50;99.90;;;;;;7331111;19;109161;-66
2023/10/27 03:18:50;;;;;;;;;;;12.50;99.90;;;;;;7339685;19;108956;-66
2023/10/27 03:21:17;;;;;;;;;;;12.60;99.90;;;;;;7331549;19;110223;-66
2023/10/27 03:23:45;;;;;;;;;;;12.60;99.90;;;;;;7332566;19;109323;-66
2023/10/27 03:26:12;;;;;;;;;;;12.60;99.90;;;;;;7330475;19;108836;-66
2023/10/27 03:28:41;;;;;;;;;;;12.60;99.90;;;;;;7333098;19;109393;-66
2023/10/27 03:31:12;;;;;;;;;;;12.60;99.90;;;;;;7332984;19;109118;-66
2023/10/27 03:33:40;;;;;;;;;;;12.60;99.90;;;;;;7332542;19;108487;-66
2023/10/27 03:36:07;;;;;;;;;;;12.60;99.90;;;;;;7332119;19;111260;-66
2023/10/27 03:38:34;;;;;;;;;;;12.60;99.90;;;;;;7327015;19;113633;-66
2023/10/27 03:41:02;;;;;;;;;;;12.70;99.90;;;;;;7335207;19;109334;-66
2023/10/27 03:43:29;;;;;;;;;;;12.70;99.90;;;;;;7330309;19;109587;-66
2023/10/27 03:45:56;;;;;;;;;;;12.70;99.90;;;;;;7332920;19;109095;-66
2023/10/27 03:48:23;;;;;;;;;;;12.70;99.90;;;;;;7325404;19;110975;-66
2023/10/27 03:50:52;;;;;;;;;;;12.70;99.90;;;;;;7330329;19;109382;-66
2023/10/27 03:53:20;;;;;;;;;;;12.70;99.90;;;;;;7323843;19;109126;-66
2023/10/27 03:55:53;;;;;;;;;;;12.60;99.90;;;;;;7332019;19;110355;-66
2023/10/27 03:58:20;;;;;;;;;;;12.60;99.90;;;;;;7329222;19;109361;-66
2023/10/27 04:00:56;;;;;;;;;;;12.50;99.90;;;;;;7334024;19;109233;-66
2023/10/27 04:03:23;;;;;;;;;;;12.50;99.90;;;;;;7331437;19;109622;-65
2023/10/27 04:05:50;;;;;;;;;;;12.50;99.90;;;;;;7332027;19;109736;-66
2023/10/27 04:08:17;;;;;;;;;;;12.50;99.90;;;;;;7326437;19;111226;-66
2023/10/27 04:10:44;;;;;;;;;;;12.50;99.90;;;;;;7331691;19;108494;-66
2023/10/27 04:13:12;;;;;;;;;;;12.50;99.90;;;;;;7329001;19;109502;-66
2023/10/27 04:15:39;;;;;;;;;;;12.60;99.90;;;;;;7332260;19;110524;-66
2023/10/27 04:18:07;;;;;;;;;;;12.60;99.90;;;;;;7332181;19;110246;-67
2023/10/27 04:20:34;;;;;;;;;;;12.60;99.90;;;;;;7328433;19;108823;-66
2023/10/27 04:23:01;;;;;;;;;;;12.60;99.90;;;;;;7330528;19;109294;-67
2023/10/27 04:25:28;;;;;;;;;;;12.70;99.90;;;;;;7333967;19;108913;-67
2023/10/27 04:27:55;;;;;;;;;;;12.70;99.90;;;;;;7325749;19;109240;-67
2023/10/27 04:30:22;;;;;;;;;;;12.70;99.90;;;;;;7329126;19;110422;-66
2023/10/27 04:32:52;;;;;;;;;;;12.70;99.90;;;;;;7332547;19;109347;-67
2023/10/27 04:35:19;;;;;;;;;;;12.70;99.90;;;;;;7332067;19;109398;-67
2023/10/27 04:37:46;;;;;;;;;;;12.80;99.90;;;;;;7332456;19;111341;-66
2023/10/27 04:40:14;;;;;;;;;;;12.80;99.90;;;;;;7327030;19;108883;-66
2023/10/27 04:42:41;;;;;;;;;;;12.80;99.90;;;;;;7329069;19;110865;-68
2023/10/27 04:45:09;;;;;;;;;;;12.70;99.90;;;;;;7335102;19;112588;-66
2023/10/27 04:47:36;;;;;;;;;;;12.80;99.90;;;;;;7326734;19;109108;-66
2023/10/27 04:50:03;;;;;;;;;;;12.80;99.90;;;;;;7328114;19;108681;-66
2023/10/27 04:52:30;;;;;;;;;;;12.70;99.90;;;;;;7324722;19;109953;-68
2023/10/27 04:55:00;;;;;;;;;;;12.80;99.90;;;;;;7328545;19;109106;-66
2023/10/27 04:57:29;;;;;;;;;;;12.80;99.90;;;;;;7327389;19;109432;-67
2023/10/27 04:59:57;;;;;;;;;;;12.80;99.90;;;;;;7327944;19;109225;-66
2023/10/27 05:02:24;;;;;;;;;;;12.70;99.90;;;;;;7330344;19;109569;-67
2023/10/27 05:04:51;;;;;;;;;;;12.80;99.90;;;;;;7329406;19;109595;-66
2023/10/27 05:07:18;;;;;;;;;;;12.80;99.90;;;;;;7335722;19;109185;-79
2023/10/27 05:09:45;;;;;;;;;;;12.80;99.90;;;;;;7336884;19;109528;-73
2023/10/27 05:12:13;;;;;;;;;;;12.80;99.90;;;;;;7333032;19;109487;-73
2023/10/27 05:14:40;;;;;;;;;;;12.80;99.90;;;;;;7339336;19;109196;-78
2023/10/27 05:17:08;;;;;;;;;;;12.80;99.90;;;;;;7337444;19;108434;-78
2023/10/27 05:19:35;;;;;;;;;;;12.80;99.90;;;;;;7329736;19;109133;-76
2023/10/27 05:22:05;;;;;;;;;;;12.80;99.90;;;;;;7336050;19;110152;-66
2023/10/27 05:24:38;;;;;;;;;;;12.80;99.90;;;;;;7352963;19;108903;-89
2023/10/27 05:27:05;;;;;;;;;;;12.80;99.90;;;;;;7367985;19;110147;-89
2023/10/27 05:29:32;;;;;;;;;;;12.90;99.90;;;;;;7366004;19;109403;-89
2023/10/27 05:31:59;;;;;;;;;;;12.80;99.90;;;;;;7363205;19;110296;-89
2023/10/27 05:34:27;;;;;;;;;;;12.80;99.90;;;;;;7362969;19;112176;-89
2023/10/27 05:36:58;;;;;;;;;;;12.80;99.90;;;;;;7363760;19;109195;-89
2023/10/27 05:39:26;;;;;;;;;;;12.80;99.90;;;;;;7369526;19;108416;-89
2023/10/27 05:41:53;;;;;;;;;;;12.80;99.90;;;;;;7361450;19;109298;-88
2023/10/27 05:44:21;;;;;;;;;;;12.80;99.90;;;;;;7365201;19;108186;-89
2023/10/27 05:46:48;;;;;;;;;;;12.80;99.90;;;;;;7369609;19;109195;-89
2023/10/27 05:49:15;;;;;;;;;;;12.80;99.90;;;;;;7357425;19;110773;-89
2023/10/27 05:51:42;;;;;;;;;;;12.90;99.90;;;;;;7370917;19;108294;-88
2023/10/27 05:54:09;;;;;;;;;;;12.80;99.90;;;;;;7336588;19;110285;-89
2023/10/27 05:56:36;;;;;;;;;;;12.90;99.90;;;;;;7332168;19;111246;-89
2023/10/27 05:59:07;;;;;;;;;;;12.90;99.90;;;;;;7331412;19;110223;-91
2023/10/27 06:01:34;;;;;;;;;;;12.90;99.90;;;;;;7326499;19;109313;-92
2023/10/27 06:04:01;;;;;;;;;;;12.90;99.90;;;;;;7335705;19;111107;-92
2023/10/27 06:06:29;;;;;;;;;;;12.90;99.90;;;;;;7337987;19;109239;-93
2023/10/27 06:08:56;;;;;;;;;;;12.90;99.90;;;;;;7337879;19;109568;-92
2023/10/27 06:11:23;;;;;;;;;;;12.90;99.90;;;;;;7331613;19;108967;-91
2023/10/27 06:13:50;;;;;;;;;;;12.90;99.90;;;;;;7340538;19;110338;-91
2023/10/27 06:16:17;;;;;;;;;;;12.90;99.90;;;;;;7334752;19;110645;-92
2023/10/27 06:18:44;;;;;;;;;;;12.90;99.90;;;;;;7331781;19;108865;-92
2023/10/27 06:21:11;;;;;;;;;;;12.90;99.90;;;;;;7337913;19;110425;-91
2023/10/27 06:40:14;;;;;;;;;;;12.90;99.90;;;;;;7333873;19;110800;-65
2023/10/27 06:42:41;;;;;;;;;;;12.90;99.90;;;;;;7335422;19;109801;-64
2023/10/27 06:45:09;;;;;;;;;;;12.90;99.90;;;;;;7334415;19;109641;-64
2023/10/27 06:47:36;;;;;;;;;;;13.00;99.90;;;;;;7332492;19;109446;-65
2023/10/27 06:50:04;;;;;;;;;;;12.90;99.90;;;;;;7333319;19;110252;-64
2023/10/27 06:52:32;;;;;;;;;;;12.90;99.90;;;;;;7332952;19;110605;-65
2023/10/27 06:55:00;;;;;;;;;;;12.90;99.90;;;;;;7335102;19;108688;-65
2023/10/27 06:57:27;;;;;;;;;;;12.90;99.90;;;;;;7338314;19;111843;-64
2023/10/27 06:59:55;;;;;;;;;;;12.90;99.90;;;;;;7330756;19;108545;-65
2023/10/27 07:02:23;;;;;;;;;;;13.00;99.90;;;;;;7330213;19;110053;-64
2023/10/27 07:04:50;;;;;;;;;;;13.00;99.90;;;;;;7328857;19;109132;-64
2023/10/27 07:07:19;;;;;;;;;;;13.00;99.90;;;;;;7332036;19;111631;-64
2023/10/27 07:09:55;;;;;;;;;;;13.00;99.90;;;;;;7328842;19;110245;-65
2023/10/27 07:12:22;;;;;;;;;;;12.90;99.90;;;;;;7328303;19;109171;-65
2023/10/27 07:14:49;;;;;;;;;;;13.00;99.90;;;;;;7332334;19;109053;-65
2023/10/27 07:17:16;;;;;;;;;;;13.00;99.90;;;;;;7331196;19;110083;-64
2023/10/27 07:19:43;;;;;;;;;;;13.00;99.90;;;;;;7339072;19;112789;-64
2023/10/27 07:22:11;;;;;;;;;;;13.00;99.90;;;;;;7331865;19;110155;-66
2023/10/27 07:24:38;;;;;;;;;;;13.00;99.90;;;;;;7334970;19;108765;-64
2023/10/27 07:27:05;;;;;;;;;;;13.00;99.90;;;;;;7330073;19;109148;-64
2023/10/27 07:29:32;;;;;;;;;;;13.00;99.90;;;;;;7333783;19;109439;-64
2023/10/27 07:32:00;;;;;;;;;;;13.00;99.90;;;;;;7334280;19;108448;-64
2023/10/27 07:34:27;;;;;;;;;;;13.10;99.90;;;;;;7333343;19;108276;-64
2023/10/27 07:36:54;;;;;;;;;;;13.10;99.90;;;;;;7333195;19;109684;-65
2023/10/27 07:39:22;;;;;;;;;;;13.10;99.90;;;;;;7333641;19;113639;-64
2023/10/27 07:41:50;;;;;;;;;;;13.10;99.90;;;;;;7335299;19;109366;-64
2023/10/27 07:44:17;;;;;;;;;;;13.10;99.90;;;;;;7330919;19;110362;-64
2023/10/27 07:46:45;;;;;;;;;;;13.10;99.90;;;;;;7333526;19;108985;-65
2023/10/27 07:49:12;;;;;;;;;;;13.10;99.90;;;;;;7331619;19;110020;-65
2023/10/27 07:51:43;;;;;;;;;;;13.10;99.90;;;;;;7328102;19;118582;-64
2023/10/27 07:54:10;;;;;;;;;;;13.20;99.90;;;;;;7333566;19;110243;-64
2023/10/27 07:56:37;;;;;;;;;;;13.20;99.90;;;;;;7333442;19;110089;-64
2023/10/27 07:59:04;;;;;;;;;;;13.20;99.90;;;;;;7334347;19;110034;-64
2023/10/27 08:01:32;;;;;;;;;;;13.30;99.90;;;;;;7326147;19;110629;-64
2023/10/27 08:03:59;;;;;;;;;;;13.30;99.90;;;;;;7335455;19;109556;-64
2023/10/27 08:06:26;;;;;;;;;;;13.40;99.90;;;;;;7321267;19;109994;-64
2023/10/27 08:08:53;;;;;;;;;;;13.40;99.90;;;;;;7330898;19;109632;-64
2023/10/27 08:11:21;;;;;;;;;;;13.40;99.90;;;;;;7329625;19;111202;-64
2023/10/27 08:13:48;;;;;;;;;;;13.40;99.90;;;;;;7332611;19;109577;-64
2023/10/27 08:16:16;;;;;;;;;;;13.50;99.90;;;;;;7333438;19;109382;-64
2023/10/27 08:18:45;;;;;;;;;;;13.50;99.90;;;;;;7333009;19;108887;-64
2023/10/27 08:21:12;;;;;;;;;;;13.50;99.90;;;;;;7331211;19;108186;-64
2023/10/27 08:23:39;;;;;;;;;;;13.50;99.90;;;;;;7330958;19;110006;-65
2023/10/27 08:26:09;;;;;;;;;;;13.50;99.90;;;;;;7338131;19;109356;-65
2023/10/27 08:28:36;;;;;;;;;;;13.60;99.90;;;;;;7333044;19;110367;-64
2023/10/27 08:31:03;;;;;;;;;;;13.60;99.90;;;;;;7330534;19;108920;-65
2023/10/27 08:33:30;;;;;;;;;;;13.60;99.90;;;;;;7333306;19;108959;-64
2023/10/27 08:36:03;;;;;;;;;;;13.70;99.90;;;;;;7332874;19;110257;-64
2023/10/27 08:38:31;;;;;;;;;;;13.70;99.90;;;;;;7331153;19;109802;-64
2023/10/27 08:40:58;;;;;;;;;;;13.70;99.90;;;;;;7332232;19;109482;-65
2023/10/27 08:43:26;;;;;;;;;;;13.80;99.90;;;;;;7336571;19;109313;-64
2023/10/27 08:45:53;;;;;;;;;;;13.80;99.90;;;;;;7348395;19;110407;-64
2023/10/27 08:48:20;;;;;;;;;;;13.90;99.90;;;;;;7336834;19;110678;-64
2023/10/27 08:50:49;;;;;;;;;;;13.80;99.90;;;;;;7340015;19;108715;-64
2023/10/27 08:53:17;;;;;;;;;;;13.90;99.90;;;;;;7333064;19;109185;-64
2023/10/27 08:55:44;;;;;;;;;;;13.90;99.90;;;;;;7339009;19;109269;-64
2023/10/27 08:58:11;;;;;;;;;;;13.90;99.90;;;;;;7338439;19;109857;-64
2023/10/27 09:00:38;;;;;;;;;;;14.00;99.90;;;;;;7337449;19;108587;-65
2023/10/27 09:03:18;;;;;;;;;;;14.00;99.90;;;;;;7337747;19;109425;-64
2023/10/27 09:05:45;;;;;;;;;;;14.00;99.90;;;;;;7339331;19;108735;-64
2023/10/27 09:08:12;;;;;;;;;;;14.10;99.90;;;;;;7343600;19;109031;-64
2023/10/27 09:10:39;;;;;;;;;;;14.20;99.90;;;;;;7336805;19;110632;-64
2023/10/27 09:13:09;;;;;;;;;;;14.20;99.90;;;;;;7336139;19;108572;-64
2023/10/27 09:15:45;;;;;;;;;;;14.20;99.90;;;;;;7336096;19;109707;-64
2023/10/27 09:18:34;;;;;;;;;;;14.20;99.90;;;;;;7334537;19;109382;-64
2023/10/27 09:21:01;;;;;;;;;;;14.20;99.90;;;;;;7339504;19;108939;-64
2023/10/27 09:23:42;;;;;;;;;;;14.20;99.90;;;;;;7334613;19;111401;-64
2023/10/27 09:26:09;;;;;;;;;;;14.30;99.90;;;;;;7337104;19;108803;-65
2023/10/27 09:28:37;;;;;;;;;;;14.30;99.90;;;;;;7336536;19;110163;-65
2023/10/27 09:31:04;;;;;;;;;;;14.30;99.90;;;;;;7340574;19;110213;-65
2023/10/27 09:33:32;;;;;;;;;;;14.20;99.90;;;;;;7336055;19;108705;-65
2023/10/27 09:36:02;;;;;;;;;;;14.20;99.90;;;;;;7336053;19;109309;-65
2023/10/27 09:38:29;;;;;;;;;;;14.20;99.90;;;;;;7339138;19;108902;-65
2023/10/27 09:40:58;;;;;;;;;;;14.30;99.90;;;;;;7335731;19;110888;-65
2023/10/27 09:43:25;;;;;;;;;;;14.30;99.90;;;;;;7335593;19;109158;-65
2023/10/27 09:45:53;;;;;;;;;;;14.30;99.90;;;;;;7333989;19;110800;-67
2023/10/27 09:48:23;;;;;;;;;;;14.30;99.90;;;;;;7334298;19;109932;-64
2023/10/27 09:50:54;;;;;;;;;;;14.30;99.90;;;;;;7333912;19;111731;-65
2023/10/27 09:53:22;;;;;;;;;;;14.30;99.90;;;;;;7340574;19;108774;-64
2023/10/27 09:55:50;;;;;;;;;;;14.30;99.90;;;;;;7334201;19;109150;-64
2023/10/27 09:58:17;;;;;;;;;;;14.30;99.90;;;;;;7333583;19;108330;-65
2023/10/27 10:00:44;;;;;;;;;;;14.30;99.90;;;;;;7336298;19;108442;-65
2023/10/27 10:03:12;;;;;;;;;;;14.30;99.90;;;;;;7333104;19;110520;-65
2023/10/27 10:05:59;;;;;;;;;;;14.30;99.90;;;;;;7336092;19;108637;-65
2023/10/27 10:08:27;;;;;;;;;;;14.30;99.90;;;;;;7331370;19;110620;-64
2023/10/27 10:11:09;;;;;;;;;;;14.40;99.90;;;;;;7336256;19;111540;-65
2023/10/27 10:13:36;;;;;;;;;;;14.40;99.90;;;;;;7337247;19;109586;-65
2023/10/27 10:16:05;;;;;;;;;;;14.40;99.90;;;;;;7338080;19;109053;-65
2023/10/27 10:18:44;;;;;;;;;;;14.40;99.90;;;;;;7331405;19;109186;-64
2023/10/27 10:21:29;;;;;;;;;;;14.40;99.90;;;;;;7332749;19;109983;-64
2023/10/27 10:24:03;;;;;;;;;;;14.40;99.90;;;;;;7334729;19;111339;-64
2023/10/27 10:26:49;;;;;;;;;;;14.50;99.90;;;;;;7337303;19;108337;-64
2023/10/27 10:29:28;;;;;;;;;;;14.50;99.90;;;;;;7336452;19;109533;-64
2023/10/27 10:32:16;;;;;;;;;;;14.60;99.90;;;;;;7333758;19;110166;-64
2023/10/27 10:35:03;;;;;;;;;;;14.60;99.90;;;;;;7331184;19;108345;-64
2023/10/27 10:37:31;;;;;;;;;;;14.50;99.90;;;;;;7335963;19;109151;-64
2023/10/27 10:40:17;;;;;;;;;;;14.50;99.90;;;;;;7337124;19;110503;-64
2023/10/27 10:43:10;;;;;;;;;;;14.50;99.90;;;;;;7336480;19;109393;-64
2023/10/27 10:45:44;;;;;;;;;;;14.40;99.90;;;;;;7333972;19;109178;-64
2023/10/27 10:48:12;;;;;;;;;;;14.40;99.90;;;;;;7334351;19;111380;-64
2023/10/27 10:50:39;;;;;;;;;;;14.40;99.90;;;;;;7331594;19;108581;-64
2023/10/27 10:53:10;;;;;;;;;;;14.30;99.90;;;;;;7331835;19;109523;-65
2023/10/27 10:55:38;;;;;;;;;;;14.30;99.90;;;;;;7337484;19;108713;-64
2023/10/27 10:58:05;;;;;;;;;;;14.30;99.90;;;;;;7337267;19;108753;-64
2023/10/27 11:00:33;;;;;;;;;;;14.30;99.90;;;;;;7332681;19;109091;-64
2023/10/27 11:03:10;;;;;;;;;;;14.40;99.90;;;;;;7333628;19;108810;-65
2023/10/27 11:05:37;;;;;;;;;;;14.40;99.90;;;;;;7318515;19;109551;-65
2023/10/27 11:08:05;;;;;;;;;;;14.40;99.90;;;;;;7326344;19;108545;-65
2023/10/27 11:10:32;;;;;;;;;;;14.40;99.90;;;;;;7334860;19;109811;-65
2023/10/27 11:13:05;;;;;;;;;;;14.40;99.90;;;;;;7330585;19;109694;-65
2023/10/27 11:15:42;;;;;;;;;;;14.50;99.90;;;;;;7333000;19;109302;-65
2023/10/27 11:18:13;;;;;;;;;;;14.50;99.90;;;;;;7329306;19;110300;-65
2023/10/27 11:20:43;;;;;;;;;;;14.50;99.90;;;;;;7333213;19;109759;-65
2023/10/27 11:23:12;;;;;;;;;;;14.40;99.90;;;;;;7339924;19;108537;-71
2023/10/27 11:25:40;;;;;;;;;;;14.40;99.90;;;;;;7332309;19;109092;-65
2023/10/27 11:28:27;;;;;;;;;;;14.50;99.90;;;;;;7333101;19;109999;-68
2023/10/27 11:30:57;;;;;;;;;;;14.50;99.90;;;;;;7336151;19;108915;-65
2023/10/27 11:33:24;;;;;;;;;;;14.50;99.90;;;;;;7338855;19;110110;-65
2023/10/27 11:35:52;;;;;;;;;;;14.40;99.90;;;;;;7334567;19;108456;-65
2023/10/27 11:38:19;;;;;;;;;;;14.40;99.90;;;;;;7334960;19;109041;-65
2023/10/27 11:40:46;;;;;;;;;;;14.30;99.90;;;;;;7332166;19;109136;-65
2023/10/27 11:43:13;;;;;;;;;;;14.30;99.90;;;;;;7330248;19;110186;-65
2023/10/27 11:45:40;;;;;;;;;;;14.30;99.90;;;;;;7338642;19;111458;-66
2023/10/27 11:48:07;;;;;;;;;;;14.20;99.90;;;;;;7328809;19;109569;-64
2023/10/27 11:50:38;;;;;;;;;;;14.30;99.90;;;;;;7334482;19;109489;-65
2023/10/27 11:53:05;;;;;;;;;;;14.20;99.90;;;;;;7330587;19;110235;-65
2023/10/27 11:55:32;;;;;;;;;;;14.20;99.90;;;;;;7333556;19;108973;-65
2023/10/27 11:57:59;;;;;;;;;;;14.30;99.90;;;;;;7331563;19;109747;-65
2023/10/27 12:00:27;;;;;;;;;;;14.30;99.90;;;;;;7333061;19;109573;-65
2023/10/27 12:02:54;;;;;;;;;;;14.40;99.90;;;;;;7327353;19;108469;-65
2023/10/27 12:05:21;;;;;;;;;;;14.30;99.90;;;;;;7329870;19;108540;-65
2023/10/27 12:07:49;;;;;;;;;;;14.30;99.90;;;;;;7337226;19;109072;-66
2023/10/27 12:10:16;;;;;;;;;;;14.30;99.90;;;;;;7321660;19;110539;-65
2023/10/27 12:12:43;;;;;;;;;;;14.40;99.90;;;;;;7327923;19;109145;-65
2023/10/27 12:15:14;;;;;;;;;;;14.40;99.90;;;;;;7331843;19;109818;-65
2023/10/27 12:17:42;;;;;;;;;;;14.50;99.90;;;;;;7331017;19;108962;-67
2023/10/27 12:20:10;;;;;;;;;;;14.60;99.90;;;;;;7336875;19;110160;-65
2023/10/27 12:22:37;;;;;;;;;;;14.60;99.90;;;;;;7337865;19;108654;-65
2023/10/27 12:25:05;;;;;;;;;;;14.60;99.90;;;;;;7336410;19;110152;-65
2023/10/27 12:27:32;;;;;;;;;;;14.70;99.90;;;;;;7338041;19;109081;-65
2023/10/27 12:30:00;;;;;;;;;;;14.70;99.90;;;;;;7346221;19;108891;-65
2023/10/27 12:32:32;;;;;;;;;;;14.70;99.90;;;;;;7337756;19;114188;-65
2023/10/27 12:35:00;;;;;;;;;;;14.80;99.90;;;;;;7341578;19;109004;-65
2023/10/27 12:37:27;;;;;;;;;;;14.80;99.90;;;;;;7339252;19;109470;-65
2023/10/27 12:39:54;;;;;;;;;;;14.90;99.90;;;;;;7340535;19;109133;-65
2023/10/27 12:42:21;;;;;;;;;;;15.00;99.90;;;;;;7334201;19;111304;-65
2023/10/27 12:44:50;;;;;;;;;;;15.10;99.90;;;;;;7332398;19;109046;-65
2023/10/27 12:47:17;;;;;;;;;;;15.20;99.90;;;;;;7336098;19;110453;-65
2023/10/27 12:49:45;;;;;;;;;;;15.20;99.90;;;;;;7334632;19;110256;-65
2023/10/27 12:52:12;;;;;;;;;;;15.40;99.90;;;;;;7341560;19;108388;-66
2023/10/27 12:54:39;;;;;;;;;;;15.50;99.90;;;;;;7338024;19;108331;-65
2023/10/27 12:57:06;;;;;;;;;;;15.60;99.90;;;;;;7339061;19;109717;-65
2023/10/27 12:59:34;;;;;;;;;;;15.60;99.90;;;;;;7336954;19;109549;-65
2023/10/27 13:02:02;;;;;;;;;;;15.70;99.90;;;;;;7337904;19;110307;-65
2023/10/27 13:04:29;;;;;;;;;;;15.60;99.90;;;;;;7335814;19;109153;-65
2023/10/27 13:06:57;;;;;;;;;;;15.60;99.90;;;;;;7336783;19;109516;-65
2023/10/27 13:09:24;;;;;;;;;;;15.70;99.90;;;;;;7332693;19;109569;-65
2023/10/27 13:11:54;;;;;;;;;;;15.80;99.90;;;;;;7341844;19;108920;-65
2023/10/27 13:14:21;;;;;;;;;;;15.80;99.90;;;;;;7337262;19;108949;-65
2023/10/27 13:16:49;;;;;;;;;;;15.80;99.90;;;;;;7336328;19;110201;-65
2023/10/27 13:19:16;;;;;;;;;;;15.80;99.90;;;;;;7335081;19;109114;-70
2023/10/27 13:21:45;;;;;;;;;;;15.80;99.90;;;;;;7327708;19;113361;-65
2023/10/27 13:24:12;;;;;;;;;;;15.90;99.90;;;;;;7332100;19;109058;-66
2023/10/27 13:26:40;;;;;;;;;;;15.90;99.90;;;;;;7332588;19;109800;-67
2023/10/27 13:29:08;;;;;;;;;;;16.00;99.90;;;;;;7329874;19;109353;-68
2023/10/27 13:31:37;;;;;;;;;;;16.10;99.90;;;;;;7337379;19;109753;-70
2023/10/27 13:34:05;;;;;;;;;;;16.10;99.90;;;;;;7337210;19;113632;-69
2023/10/27 13:36:32;;;;;;;;;;;16.10;99.90;;;;;;7335506;19;109874;-66
2023/10/27 13:38:59;;;;;;;;;;;16.10;99.90;;;;;;7335123;19;109299;-66
2023/10/27 13:41:34;;;;;;;;;;;16.10;99.90;;;;;;7333966;19;108873;-75
2023/10/27 13:44:02;;;;;;;;;;;16.00;99.90;;;;;;7338613;19;108694;-66
2023/10/27 13:46:30;;;;;;;;;;;15.90;99.90;;;;;;7334879;19;109459;-72
2023/10/27 13:48:57;;;;;;;;;;;15.90;99.90;;;;;;7329747;19;110205;-67
2023/10/27 13:51:27;;;;;;;;;;;15.90;99.90;;;;;;7334230;19;108652;-66
2023/10/27 13:53:54;;;;;;;;;;;15.90;99.90;;;;;;7335771;19;109383;-66
2023/10/27 13:56:21;;;;;;;;;;;15.90;99.90;;;;;;7340036;19;109140;-65
2023/10/27 13:58:49;;;;;;;;;;;15.90;99.90;;;;;;7335901;19;109416;-65
2023/10/27 14:01:18;;;;;;;;;;;15.90;99.90;;;;;;7336447;19;111056;-65
2023/10/27 14:03:45;;;;;;;;;;;15.90;99.90;;;;;;7335588;19;108375;-65
2023/10/27 14:06:13;;;;;;;;;;;16.10;99.90;;;;;;7333160;19;109990;-65
2023/10/27 14:08:41;;;;;;;;;;;16.20;99.90;;;;;;7334130;19;109582;-64
2023/10/27 14:11:08;;;;;;;;;;;16.30;99.90;;;;;;7332688;19;108912;-65
2023/10/27 14:13:35;;;;;;;;;;;16.30;99.90;;;;;;7334847;19;109412;-64
2023/10/27 14:16:03;;;;;;;;;;;16.50;99.90;;;;;;7333205;19;110646;-64
2023/10/27 14:18:30;;;;;;;;;;;16.60;99.90;;;;;;7343115;19;108979;-64
2023/10/27 14:21:01;;;;;;;;;;;16.80;99.90;;;;;;7335238;19;108824;-64
2023/10/27 14:23:28;;;;;;;;;;;17.00;99.90;;;;;;7335653;19;108756;-66
2023/10/27 14:25:58;;;;;;;;;;;17.20;99.90;;;;;;7330497;19;110117;-64
2023/10/27 14:28:25;;;;;;;;;;;17.20;99.90;;;;;;7329806;19;110284;-64